Time;durP1;ratioP1;P1;durP2;ratioP2;P2;SDS_P1;SDS_P2;PMS_P1;PMS_P2;Temp;Humidity;BMP_temperature;BMP_pressure;BME280_temperature;BME280_humidity;BME280_pressure;Samples;Min_cycle;Max_cycle;Signal;HPM_P1;HPM_P2
2023/08/06 00:00:25;;;;;;;0.32;0.20;;;;;;;23.03;100.00;100482.81;10535307;28;20414;-78
2023/08/06 00:05:27;;;;;;;0.03;0.03;;;;;;;23.02;100.00;100486.34;10518841;28;20097;-78
2023/08/06 00:10:28;;;;;;;0.55;0.35;;;;;;;22.68;100.00;100492.66;10499559;28;20406;-77
2023/08/06 00:15:30;;;;;;;1.55;0.73;;;;;;;22.12;100.00;100483.78;10516324;28;20135;-77
2023/08/06 00:20:32;;;;;;;0.25;0.17;;;;;;;22.03;100.00;100489.28;10514567;28;20051;-78
2023/08/06 00:25:34;;;;;;;1.08;0.75;;;;;;;21.73;100.00;100476.13;10513678;28;20453;-78
2023/08/06 00:30:35;;;;;;;0.40;0.40;;;;;;;22.63;100.00;100466.56;10537569;28;20487;-78
2023/08/06 00:35:37;;;;;;;0.20;0.20;;;;;;;22.60;100.00;100463.19;10519312;28;20047;-78
2023/08/06 00:40:39;;;;;;;2.92;0.65;;;;;;;22.85;100.00;100468.50;10503028;28;20491;-77
2023/08/06 00:45:40;;;;;;;0.65;0.52;;;;;;;22.68;100.00;100469.00;10502368;28;20067;-78
2023/08/06 00:50:42;;;;;;;0.32;0.32;;;;;;;22.55;100.00;100470.31;10504318;28;20044;-78
2023/08/06 00:55:45;;;;;;;0.40;0.40;;;;;;;22.48;100.00;100465.25;10517526;28;20040;-78
2023/08/06 01:00:47;;;;;;;0.50;0.45;;;;;;;22.78;100.00;100462.56;10511216;28;20134;-78
2023/08/06 01:05:49;;;;;;;2.45;0.47;;;;;;;22.57;100.00;100460.63;10502846;28;20052;-78
2023/08/06 01:11:11;;;;;;;0.98;0.60;;;;;;;22.40;100.00;100464.63;10502191;28;20491;-78
2023/08/06 01:16:18;;;;;;;0.85;0.52;;;;;;;22.61;100.00;100460.50;10502949;28;20444;-78
2023/08/06 01:21:20;;;;;;;0.80;0.47;;;;;;;21.74;100.00;100459.50;10524841;28;20044;-78
2023/08/06 01:26:41;;;;;;;1.00;0.38;;;;;;;22.58;100.00;100450.06;10510526;28;20071;-78
2023/08/06 01:31:44;;;;;;;1.00;0.68;;;;;;;22.46;100.00;100446.06;10521690;28;20131;-78
2023/08/06 01:36:46;;;;;;;0.40;0.32;;;;;;;23.22;100.00;100448.03;10526330;28;20059;-78
2023/08/06 01:41:48;;;;;;;0.20;0.20;;;;;;;22.39;100.00;100449.78;10523829;28;20052;-78
2023/08/06 01:46:51;;;;;;;1.30;0.57;;;;;;;22.46;100.00;100451.31;10523829;28;20467;-78
2023/08/06 01:51:52;;;;;;;0.35;0.35;;;;;;;22.87;100.00;100444.81;10525044;28;20048;-78
2023/08/06 01:56:54;;;;;;;0.85;0.50;;;;;;;22.47;100.00;100442.53;10520767;28;20490;-78
2023/08/06 02:01:56;;;;;;;0.93;0.55;;;;;;;23.01;100.00;100437.31;10524885;28;20054;-78
2023/08/06 02:06:59;;;;;;;0.85;0.32;;;;;;;23.34;100.00;100431.88;10511648;28;20530;-78
2023/08/06 02:12:02;;;;;;;1.05;0.80;;;;;;;23.61;100.00;100426.53;10530133;28;20118;-78
2023/08/06 02:17:04;;;;;;;0.63;0.63;;;;;;;23.38;100.00;100422.09;10525640;28;20048;-78
2023/08/06 02:22:05;;;;;;;0.38;0.30;;;;;;;23.61;100.00;100416.03;10499483;28;20495;-78
2023/08/06 02:27:07;;;;;;;0.28;0.25;;;;;;;23.53;100.00;100423.31;10517461;28;20046;-78
2023/08/06 02:32:09;;;;;;;0.15;0.15;;;;;;;23.82;100.00;100413.50;10520759;28;20048;-78
2023/08/06 02:37:10;;;;;;;0.00;0.00;;;;;;;23.71;100.00;100406.88;10520365;28;20131;-79
2023/08/06 02:42:13;;;;;;;0.75;0.52;;;;;;;24.42;100.00;100402.47;10522213;28;20044;-78
2023/08/06 02:47:14;;;;;;;0.00;0.00;;;;;;;24.43;100.00;100404.19;10504462;28;20131;-78
2023/08/06 02:52:16;;;;;;;1.20;0.68;;;;;;;23.87;100.00;100398.41;10521685;28;20044;-78
2023/08/06 02:57:18;;;;;;;0.10;0.10;;;;;;;23.99;100.00;100397.97;10510372;28;20048;-78
2023/08/06 03:02:22;;;;;;;0.03;0.03;;;;;;;23.63;100.00;100387.91;10521184;28;20040;-78
2023/08/06 03:07:47;;;;;;;0.00;0.00;;;;;;;24.32;100.00;100387.03;10495426;28;20072;-78
2023/08/06 03:12:55;;;;;;;0.40;0.32;;;;;;;24.07;100.00;100387.16;10516463;28;20051;-78
2023/08/06 03:17:58;;;;;;;0.17;0.17;;;;;;;23.83;100.00;100378.41;10520506;28;20113;-78
2023/08/06 03:23:00;;;;;;;0.03;0.03;;;;;;;23.70;100.00;100383.25;10495378;28;20075;-78
2023/08/06 03:28:03;;;;;;;0.52;0.38;;;;;;;23.04;100.00;100387.31;10503897;28;20048;-78
2023/08/06 03:33:07;;;;;;;0.45;0.43;;;;;;;23.45;100.00;100390.28;10503467;28;20051;-78
2023/08/06 03:38:09;;;;;;;0.10;0.10;;;;;;;23.99;100.00;100384.84;10519914;28;20093;-78
2023/08/06 03:43:10;;;;;;;0.30;0.20;;;;;;;23.68;100.00;100380.69;10519603;28;20038;-78
2023/08/06 03:48:12;;;;;;;0.10;0.10;;;;;;;22.99;100.00;100378.72;10493820;28;20118;-78
2023/08/06 03:53:14;;;;;;;0.52;0.08;;;;;;;23.35;100.00;100377.53;10518812;28;20058;-78
2023/08/06 03:58:16;;;;;;;0.00;0.00;;;;;;;23.55;100.00;100379.44;10505603;28;20052;-78
2023/08/06 04:03:18;;;;;;;0.28;0.20;;;;;;;23.36;100.00;100376.63;10516443;28;20101;-77
2023/08/06 04:08:20;;;;;;;0.28;0.20;;;;;;;22.81;100.00;100382.81;10518003;28;20102;-78
2023/08/06 04:13:21;;;;;;;0.13;0.05;;;;;;;22.79;100.00;100382.88;10501179;28;20079;-77
2023/08/06 04:18:24;;;;;;;0.32;0.17;;;;;;;23.06;100.00;100376.75;10508867;28;20093;-78
2023/08/06 04:23:27;;;;;;;0.20;0.20;;;;;;;22.63;100.00;100376.41;10495187;28;20097;-77
2023/08/06 04:28:33;;;;;;;0.32;0.32;;;;;;;23.28;100.00;100372.50;10512291;28;20044;-77
2023/08/06 04:33:35;;;;;;;0.75;0.32;;;;;;;23.33;100.00;100374.97;10519717;28;20051;-78
2023/08/06 04:38:45;;;;;;;0.70;0.45;;;;;;;22.71;100.00;100384.91;10501767;28;20048;-77
2023/08/06 04:43:48;;;;;;;0.35;0.30;;;;;;;22.96;100.00;100381.47;10519834;28;20048;-77
2023/08/06 04:48:51;;;;;;;0.10;0.10;;;;;;;23.25;100.00;100377.00;10507068;28;20051;-77
2023/08/06 04:53:53;;;;;;;0.10;0.10;;;;;;;23.29;100.00;100378.59;10524517;28;20414;-77
2023/08/06 04:58:55;;;;;;;0.20;0.20;;;;;;;23.27;100.00;100383.06;10523768;28;20052;-77
2023/08/06 05:03:56;;;;;;;0.73;0.47;;;;;;;23.26;100.00;100389.22;10527652;28;20047;-77
2023/08/06 05:08:58;;;;;;;0.20;0.17;;;;;;;23.73;100.00;100388.41;10529522;28;20059;-77
2023/08/06 05:14:00;;;;;;;0.10;0.10;;;;;;;22.89;100.00;100398.34;10530511;28;20495;-77
2023/08/06 05:19:01;;;;;;;1.92;0.35;;;;;;;23.57;100.00;100390.72;10518477;28;20063;-77
2023/08/06 05:24:03;;;;;;;0.60;0.20;;;;;;;22.84;100.00;100408.13;10536674;28;20094;-77
2023/08/06 05:29:05;;;;;;;0.15;0.15;;;;;;;23.52;100.00;100405.81;10529195;28;20040;-78
2023/08/06 05:34:07;;;;;;;0.35;0.25;;;;;;;23.55;100.00;100416.25;10512934;28;20056;-77
2023/08/06 05:39:09;;;;;;;0.75;0.50;;;;;;;23.41;100.00;100409.72;10529402;28;20488;-77
2023/08/06 05:44:11;;;;;;;0.45;0.22;;;;;;;23.10;100.00;100421.25;10513560;28;20052;-78
2023/08/06 05:49:13;;;;;;;0.35;0.28;;;;;;;23.34;100.00;100417.84;10510125;28;20040;-77
2023/08/06 05:54:16;;;;;;;1.25;0.80;;;;;;;23.19;100.00;100422.72;10514947;28;20457;-78
2023/08/06 05:59:17;;;;;;;1.60;0.40;;;;;;;23.01;100.00;100421.56;10529016;28;20161;-77
2023/08/06 06:04:19;;;;;;;0.30;0.20;;;;;;;23.95;100.00;100430.56;10509088;28;20040;-77
2023/08/06 06:09:21;;;;;;;0.93;0.47;;;;;;;23.11;100.00;100430.88;10506882;28;20139;-78
2023/08/06 06:14:22;;;;;;;0.98;0.65;;;;;;;24.02;100.00;100437.31;10522515;28;20051;-78
2023/08/06 06:19:24;;;;;;;1.00;0.32;;;;;;;23.89;100.00;100442.16;10500170;28;20052;-78
2023/08/06 06:24:28;;;;;;;1.65;1.45;;;;;;;23.62;100.00;100444.03;10523298;28;20460;-77
2023/08/06 06:29:30;;;;;;;1.08;0.35;;;;;;;23.82;100.00;100445.94;10512220;28;20048;-78
2023/08/06 06:34:31;;;;;;;0.50;0.28;;;;;;;23.56;100.00;100449.50;10525904;28;20055;-77
2023/08/06 06:39:33;;;;;;;0.10;0.10;;;;;;;24.03;100.00;100449.56;10508827;28;20054;-78
2023/08/06 06:44:35;;;;;;;0.13;0.13;;;;;;;24.05;100.00;100453.00;10501108;28;20048;-77
2023/08/06 06:49:36;;;;;;;0.43;0.38;;;;;;;24.70;100.00;100453.16;10504765;28;20131;-77
2023/08/06 06:54:38;;;;;;;0.55;0.40;;;;;;;24.22;100.00;100462.03;10504854;28;20075;-77
2023/08/06 06:59:40;;;;;;;0.63;0.20;;;;;;;24.89;100.00;100465.59;10521148;28;20060;-77
2023/08/06 07:04:42;;;;;;;1.15;0.60;;;;;;;23.72;100.00;100465.59;10504510;28;20155;-77
2023/08/06 07:09:44;;;;;;;0.22;0.20;;;;;;;24.01;100.00;100461.06;10503547;28;20044;-77
2023/08/06 07:14:46;;;;;;;0.75;0.40;;;;;;;23.86;100.00;100473.00;10503307;28;20055;-78
2023/08/06 07:19:48;;;;;;;1.08;0.65;;;;;;;24.14;100.00;100472.84;10532874;28;20127;-77
2023/08/06 07:24:49;;;;;;;0.50;0.30;;;;;;;24.06;100.00;100475.78;10508588;28;20136;-77
2023/08/06 07:29:51;;;;;;;0.10;0.10;;;;;;;24.90;100.00;100477.84;10499372;28;20123;-78
2023/08/06 07:34:56;;;;;;;0.60;0.40;;;;;;;24.22;100.00;100491.00;10537329;28;20131;-78
2023/08/06 07:39:58;;;;;;;0.22;0.20;;;;;;;24.55;100.00;100494.09;10520323;28;20062;-77
2023/08/06 07:45:00;;;;;;;0.30;0.10;;;;;;;24.49;100.00;100490.84;10519819;28;20044;-78
2023/08/06 07:50:01;;;;;;;0.60;0.20;;;;;;;24.35;100.00;100484.34;10495487;28;20036;-78
2023/08/06 07:55:04;;;;;;;0.20;0.20;;;;;;;24.82;100.00;100485.19;10502962;28;20507;-78
2023/08/06 08:00:06;;;;;;;0.45;0.30;;;;;;;25.26;100.00;100482.50;10500557;28;20441;-78
2023/08/06 08:05:13;;;;;;;0.75;0.50;;;;;;;25.17;100.00;100489.00;10522608;28;20045;-78
2023/08/06 08:10:14;;;;;;;0.70;0.65;;;;;;;26.03;100.00;100480.06;10506053;28;20433;-77
2023/08/06 08:15:16;;;;;;;0.82;0.57;;;;;;;26.00;100.00;100477.59;10504358;28;20040;-77
2023/08/06 08:20:18;;;;;;;3.45;1.02;;;;;;;26.05;100.00;100472.94;10510739;28;20127;-77
2023/08/06 08:25:20;;;;;;;0.82;0.50;;;;;;;25.59;100.00;100479.34;10514310;28;20051;-77
2023/08/06 08:30:24;;;;;;;1.67;0.80;;;;;;;24.89;100.00;100491.94;10498952;28;20046;-77
2023/08/06 08:35:27;;;;;;;1.40;0.85;;;;;;;26.17;100.00;100482.13;10499701;28;20130;-77
2023/08/06 08:40:32;;;;;;;1.52;0.60;;;;;;;25.15;100.00;100492.63;10499659;28;20040;-77
2023/08/06 08:45:39;;;;;;;0.90;0.70;;;;;;;25.67;100.00;100489.59;10511630;28;20398;-77
2023/08/06 08:50:41;;;;;;;0.63;0.50;;;;;;;26.06;100.00;100482.56;10502210;28;20040;-77
2023/08/06 08:55:46;;;;;;;1.48;0.95;;;;;;;24.49;100.00;100489.09;10517873;28;20052;-77
2023/08/06 09:00:48;;;;;;;1.17;1.05;;;;;;;25.40;100.00;100491.63;10513341;28;20500;-77
2023/08/06 09:05:54;;;;;;;0.55;0.47;;;;;;;25.49;100.00;100497.34;10507099;28;20051;-78
2023/08/06 09:10:56;;;;;;;0.65;0.55;;;;;;;24.81;100.00;100504.56;10511353;28;20139;-78
2023/08/06 09:15:58;;;;;;;1.48;0.82;;;;;;;25.02;100.00;100503.69;10505427;28;20054;-78
2023/08/06 09:21:00;;;;;;;0.17;0.17;;;;;;;25.06;100.00;100503.56;10513247;28;20089;-78
2023/08/06 09:26:02;;;;;;;0.60;0.30;;;;;;;25.28;100.00;100509.63;10498212;28;20040;-78
2023/08/06 09:31:04;;;;;;;0.77;0.35;;;;;;;24.84;100.00;100510.56;10510378;28;20516;-78
2023/08/06 09:36:12;;;;;;;0.22;0.22;;;;;;;26.09;100.00;100507.06;10515093;28;20032;-78
2023/08/06 09:41:27;;;;;;;0.45;0.43;;;;;;;25.56;100.00;100518.19;10504357;28;20048;-78
2023/08/06 09:46:32;;;;;;;0.90;0.50;;;;;;;25.93;100.00;100513.94;10514787;28;20036;-78
2023/08/06 09:51:34;;;;;;;0.20;0.20;;;;;;;25.94;100.00;100521.81;10505184;28;20402;-78
2023/08/06 09:56:37;;;;;;;0.38;0.10;;;;;;;24.98;100.00;100527.59;10522117;28;20040;-77
2023/08/06 10:01:39;;;;;;;0.75;0.75;;;;;;;25.08;100.00;100530.69;10508749;28;20048;-78
2023/08/06 10:06:41;;;;;;;1.25;0.82;;;;;;;24.37;100.00;100537.81;10499180;28;20460;-78
2023/08/06 10:11:47;;;;;;;1.58;0.63;;;;;;;24.67;100.00;100529.66;10508257;28;20056;-78
2023/08/06 10:16:50;;;;;;;0.20;0.20;;;;;;;24.62;100.00;100534.19;10517075;28;20395;-79
2023/08/06 10:22:10;;;;;;;0.98;0.90;;;;;;;25.11;100.00;100527.94;10509254;28;20509;-78
2023/08/06 10:27:11;;;;;;;0.63;0.45;;;;;;;25.81;100.00;100525.88;10513595;28;20090;-78
2023/08/06 10:32:13;;;;;;;0.28;0.28;;;;;;;25.11;100.00;100528.78;10524021;28;20054;-78
2023/08/06 10:37:15;;;;;;;1.27;0.68;;;;;;;24.71;100.00;100528.63;10521611;28;20490;-78
2023/08/06 10:42:22;;;;;;;1.05;0.60;;;;;;;25.96;100.00;100530.50;10507192;28;20051;-77
2023/08/06 10:47:27;;;;;;;0.32;0.32;;;;;;;25.44;100.00;100535.38;10505626;28;20131;-78
2023/08/06 10:52:29;;;;;;;0.43;0.43;;;;;;;25.39;100.00;100537.38;10506055;28;20049;-78
2023/08/06 10:57:31;;;;;;;0.60;0.60;;;;;;;25.95;100.00;100536.69;10507847;28;20052;-78
2023/08/06 11:02:36;;;;;;;0.50;0.30;;;;;;;25.13;100.00;100539.28;10518150;28;20051;-78
2023/08/06 11:07:39;;;;;;;0.60;0.38;;;;;;;26.27;100.00;100531.78;10521794;28;20040;-78
2023/08/06 11:12:41;;;;;;;1.17;0.63;;;;;;;26.36;100.00;100525.22;10522669;28;20072;-78
2023/08/06 11:17:42;;;;;;;0.57;0.45;;;;;;;26.18;100.00;100519.00;10513472;28;20059;-79
2023/08/06 11:22:44;;;;;;;0.65;0.55;;;;;;;26.71;100.00;100525.34;10515148;28;20036;-77
2023/08/06 11:27:46;;;;;;;0.90;0.52;;;;;;;27.22;100.00;100519.41;10518172;28;20395;-78
2023/08/06 11:32:48;;;;;;;0.32;0.30;;;;;;;27.38;100.00;100522.13;10516959;28;20043;-78
2023/08/06 11:37:50;;;;;;;0.60;0.60;;;;;;;26.38;100.00;100535.72;10512541;28;20054;-77
2023/08/06 11:42:52;;;;;;;1.00;0.77;;;;;;;25.74;100.00;100537.63;10512879;28;20051;-78
2023/08/06 11:47:54;;;;;;;0.52;0.28;;;;;;;25.58;100.00;100543.56;10521324;28;20070;-79
2023/08/06 11:53:00;;;;;;;6.03;0.40;;;;;;;25.08;100.00;100550.03;10529516;28;20118;-78
2023/08/06 11:58:05;;;;;;;0.13;0.13;;;;;;;25.50;100.00;100553.63;10511098;28;20055;-77
2023/08/06 12:03:07;;;;;;;0.32;0.28;;;;;;;25.30;100.00;100560.53;10487809;28;20072;-77
2023/08/06 12:08:09;;;;;;;0.20;0.20;;;;;;;25.29;100.00;100558.81;10513034;28;20040;-77
2023/08/06 12:13:11;;;;;;;0.98;0.60;;;;;;;25.12;100.00;100558.66;10517490;28;20052;-77
2023/08/06 12:18:12;;;;;;;0.28;0.25;;;;;;;24.35;100.00;100570.38;10518670;28;20418;-77
2023/08/06 12:23:15;;;;;;;0.60;0.50;;;;;;;25.00;100.00;100568.75;10516129;28;20044;-78
2023/08/06 12:28:16;;;;;;;0.32;0.28;;;;;;;22.47;100.00;100579.03;10532628;28;20036;-78
2023/08/06 12:33:18;;;;;;;0.00;0.00;;;;;;;23.20;100.00;100581.25;10496472;28;20044;-77
2023/08/06 12:38:20;;;;;;;0.22;0.10;;;;;;;22.56;100.00;100582.28;10513915;28;20097;-77
2023/08/06 12:43:22;;;;;;;0.00;0.00;;;;;;;22.83;100.00;100596.38;10503911;28;20116;-77
2023/08/06 12:48:23;;;;;;;0.10;0.10;;;;;;;22.47;100.00;100610.53;10517585;28;20051;-76
2023/08/06 12:53:25;;;;;;;0.00;0.00;;;;;;;22.28;100.00;100630.28;10503680;28;20048;-77
2023/08/06 12:58:27;;;;;;;0.00;0.00;;;;;;;21.97;100.00;100633.72;10520487;28;20466;-78
2023/08/06 13:03:28;;;;;;;0.00;0.00;;;;;;;21.80;100.00;100640.25;10503681;28;20048;-78
2023/08/06 13:08:33;;;;;;;0.75;0.25;;;;;;;21.93;100.00;100646.06;10511484;28;20055;-78
2023/08/06 13:13:35;;;;;;;0.00;0.00;;;;;;;21.08;100.00;100648.03;10516364;28;20044;-77
2023/08/06 13:18:37;;;;;;;0.95;0.22;;;;;;;20.74;100.00;100661.81;10506698;28;20127;-77
2023/08/06 13:23:38;;;;;;;0.15;0.00;;;;;;;21.18;100.00;100667.91;10523738;28;20143;-79
2023/08/06 13:28:40;;;;;;;0.00;0.00;;;;;;;21.14;100.00;100686.34;10546895;28;20032;-80
2023/08/06 13:33:42;;;;;;;0.17;0.10;;;;;;;20.29;100.00;100692.28;10526312;28;20081;-80
2023/08/06 13:38:43;;;;;;;1.80;0.10;;;;;;;21.00;100.00;100691.84;10527076;28;20044;-80
2023/08/06 13:43:45;;;;;;;0.17;0.00;;;;;;;20.74;100.00;100698.47;10534409;28;20040;-79
2023/08/06 13:48:50;;;;;;;0.00;0.00;;;;;;;21.17;100.00;100697.59;10498137;28;20050;-80
2023/08/06 13:53:53;;;;;;;0.30;0.28;;;;;;;21.05;100.00;100706.59;10509751;28;20093;-79
2023/08/06 13:58:55;;;;;;;0.00;0.00;;;;;;;20.86;100.00;100703.47;10523636;28;20043;-78
2023/08/06 14:04:13;;;;;;;0.00;0.00;;;;;;;21.02;100.00;100708.41;10522291;28;20051;-79
2023/08/06 14:09:18;;;;;;;0.52;0.30;;;;;;;20.16;100.00;100722.16;10513792;28;20040;-79
2023/08/06 14:14:25;;;;;;;0.40;0.20;;;;;;;20.72;100.00;100718.56;10518924;28;20105;-80
2023/08/06 14:19:28;;;;;;;0.28;0.28;;;;;;;20.78;100.00;100718.47;10503836;28;20044;-79
2023/08/06 14:24:30;;;;;;;0.10;0.05;;;;;;;20.60;100.00;100732.75;10497694;28;20136;-79
2023/08/06 14:29:32;;;;;;;0.15;0.10;;;;;;;20.47;100.00;100732.09;10515210;28;20044;-80
2023/08/06 14:34:33;;;;;;;0.20;0.20;;;;;;;20.51;100.00;100732.91;10528987;28;20047;-80
2023/08/06 14:39:35;;;;;;;0.05;0.05;;;;;;;20.38;100.00;100737.47;10524005;28;20036;-79
2023/08/06 14:44:37;;;;;;;0.00;0.00;;;;;;;20.73;100.00;100749.13;10514369;28;20040;-79
2023/08/06 14:49:38;;;;;;;0.32;0.15;;;;;;;20.40;100.00;100748.78;10513199;28;20068;-79
2023/08/06 14:54:40;;;;;;;0.30;0.30;;;;;;;20.94;100.00;100762.69;10542016;28;20123;-79
2023/08/06 14:59:42;;;;;;;0.65;0.45;;;;;;;20.58;100.00;100766.81;10520765;28;20525;-78
2023/08/06 15:04:43;;;;;;;0.30;0.30;;;;;;;21.51;100.00;100772.84;10508568;28;20044;-79
2023/08/06 15:09:45;;;;;;;0.38;0.30;;;;;;;21.30;100.00;100781.16;10522579;28;20470;-78
2023/08/06 15:15:08;;;;;;;5.72;0.20;;;;;;;21.34;100.00;100795.91;10521906;28;20040;-78
2023/08/06 15:20:10;;;;;;;0.20;0.17;;;;;;;21.86;100.00;100797.44;10505966;28;20047;-78
2023/08/06 15:25:12;;;;;;;0.13;0.13;;;;;;;22.30;100.00;100806.94;10522109;28;20617;-79
2023/08/06 15:30:13;;;;;;;0.08;0.08;;;;;;;21.86;100.00;100823.66;10511158;28;20458;-79
2023/08/06 15:35:15;;;;;;;0.43;0.40;;;;;;;22.23;100.00;100821.13;10503561;28;20131;-78
2023/08/06 15:40:17;;;;;;;0.15;0.10;;;;;;;22.43;100.00;100823.25;10514062;28;20054;-78
2023/08/06 15:45:19;;;;;;;0.20;0.13;;;;;;;22.81;100.00;100827.56;10516584;28;20051;-79
2023/08/06 15:50:20;;;;;;;0.20;0.20;;;;;;;22.34;100.00;100829.56;10519538;28;20131;-78
2023/08/06 15:55:22;;;;;;;0.10;0.10;;;;;;;22.96;100.00;100838.53;10536356;28;20445;-79
2023/08/06 16:00:23;;;;;;;0.05;0.05;;;;;;;22.93;100.00;100854.38;10508739;28;20040;-79
2023/08/06 16:05:25;;;;;;;0.20;0.10;;;;;;;;;;10512422;28;20421;-78
2023/08/06 16:10:27;;;;;;;0.65;0.32;;;;;;;22.89;100.00;100860.63;10503550;28;20055;-79
2023/08/06 16:15:28;;;;;;;0.88;0.63;;;;;;;22.72;100.00;100876.78;10520881;28;20123;-79
2023/08/06 16:20:30;;;;;;;0.55;0.45;;;;;;;22.11;100.00;100875.59;10501712;28;20052;-78
2023/08/06 16:25:32;;;;;;;1.00;0.52;;;;;;;22.62;100.00;100870.91;10513793;28;20043;-78
2023/08/06 16:30:34;;;;;;;1.08;0.35;;;;;;;22.74;100.00;100881.13;10514089;28;20044;-79
2023/08/06 16:35:35;;;;;;;1.23;0.30;;;;;;;22.58;100.00;100890.28;10512868;28;20048;-78
2023/08/06 16:40:37;;;;;;;0.30;0.30;;;;;;;22.32;100.00;100902.22;10508883;28;20169;-79
2023/08/06 16:45:39;;;;;;;0.47;0.30;;;;;;;22.50;100.00;100907.09;10520021;28;20040;-78
2023/08/06 16:50:41;;;;;;;0.17;0.10;;;;;;;22.12;100.00;100908.81;10497555;28;20036;-78
2023/08/06 16:55:42;;;;;;;0.20;0.20;;;;;;;21.50;100.00;100925.75;10507550;28;20079;-78
2023/08/06 17:00:45;;;;;;;0.00;0.00;;;;;;;21.42;100.00;100926.81;10508989;28;20055;-79
2023/08/06 17:05:47;;;;;;;0.10;0.10;;;;;;;20.81;100.00;100940.09;10504622;28;20093;-79
2023/08/06 17:10:49;;;;;;;0.10;0.10;;;;;;;20.36;100.00;100948.59;10525226;28;20075;-80
2023/08/06 17:15:51;;;;;;;0.00;0.00;;;;;;;20.47;100.00;100961.53;10520157;28;20070;-80
2023/08/06 17:20:52;;;;;;;4.47;0.80;;;;;;;20.55;100.00;100970.97;10518984;28;20452;-80
2023/08/06 17:25:54;;;;;;;0.00;0.00;;;;;;;21.00;100.00;100969.47;10519850;28;20071;-81
2023/08/06 17:30:56;;;;;;;0.15;0.15;;;;;;;20.81;100.00;100975.00;10506263;28;20131;-80
2023/08/06 17:35:58;;;;;;;0.10;0.10;;;;;;;20.68;100.00;100986.50;10526066;28;20046;-80
2023/08/06 17:41:02;;;;;;;0.00;0.00;;;;;;;20.84;100.00;100992.41;10519606;28;20047;-80
2023/08/06 17:46:04;;;;;;;0.20;0.00;;;;;;;20.90;100.00;100993.16;10502540;28;20066;-79
2023/08/06 17:51:05;;;;;;;0.10;0.00;;;;;;;20.75;100.00;100988.16;10502535;28;20047;-80
2023/08/06 17:56:07;;;;;;;0.20;0.05;;;;;;;21.53;100.00;100996.50;10518681;28;20068;-80
2023/08/06 18:01:09;;;;;;;0.00;0.00;;;;;;;20.83;100.00;100995.91;10523493;28;20048;-79
2023/08/06 18:06:10;;;;;;;0.10;0.10;;;;;;;21.09;100.00;100998.13;10509333;28;20131;-79
2023/08/06 18:11:12;;;;;;;0.00;0.00;;;;;;;20.66;100.00;100998.78;10525621;28;20039;-78
2023/08/06 18:16:14;;;;;;;0.00;0.00;;;;;;;20.75;100.00;101015.22;10525234;28;20046;-78
2023/08/06 18:21:16;;;;;;;0.00;0.00;;;;;;;21.17;100.00;101013.72;10502715;28;20127;-79
2023/08/06 18:26:17;;;;;;;0.00;0.00;;;;;;;20.97;100.00;101022.75;10508796;28;20040;-78
2023/08/06 18:31:19;;;;;;;0.00;0.00;;;;;;;21.07;100.00;101018.25;10510156;28;20044;-79
2023/08/06 18:36:21;;;;;;;0.10;0.03;;;;;;;21.34;100.00;101023.91;10506976;28;20464;-78
2023/08/06 18:41:23;;;;;;;0.10;0.10;;;;;;;20.92;100.00;101030.69;10522435;28;20036;-78
2023/08/06 18:46:24;;;;;;;0.00;0.00;;;;;;;21.11;100.00;101021.66;10505607;28;20043;-78
2023/08/06 18:51:26;;;;;;;0.00;0.00;;;;;;;20.60;100.00;101031.97;10521837;28;20072;-77
2023/08/06 18:56:28;;;;;;;0.00;0.00;;;;;;;21.02;100.00;101035.78;10521400;28;20572;-78
2023/08/06 19:01:30;;;;;;;0.10;0.00;;;;;;;21.16;100.00;101030.31;10523831;28;20048;-77
2023/08/06 19:06:32;;;;;;;0.00;0.00;;;;;;;20.79;100.00;101038.72;10522013;28;20411;-77
2023/08/06 19:11:33;;;;;;;0.35;0.17;;;;;;;20.40;100.00;101044.47;10504385;28;20135;-77
2023/08/06 19:16:35;;;;;;;0.10;0.00;;;;;;;20.50;100.00;101048.72;10520796;28;20055;-77
2023/08/06 19:21:37;;;;;;;2.45;0.10;;;;;;;20.80;100.00;101035.22;10520693;28;20121;-78
2023/08/06 19:26:39;;;;;;;0.00;0.00;;;;;;;20.23;100.00;101047.28;10519887;28;20036;-77
2023/08/06 19:31:40;;;;;;;0.00;0.00;;;;;;;20.36;100.00;101050.63;10498580;28;20522;-78
2023/08/06 19:37:00;;;;;;;0.00;0.00;;;;;;;20.34;100.00;101061.09;10536789;28;20056;-77
2023/08/06 19:42:02;;;;;;;0.00;0.00;;;;;;;20.40;100.00;101060.16;10519725;28;20078;-78
2023/08/06 19:47:04;;;;;;;0.00;0.00;;;;;;;20.92;100.00;101066.50;10517869;28;20133;-77
2023/08/06 19:52:06;;;;;;;0.00;0.00;;;;;;;20.58;100.00;101064.28;10514722;28;20051;-78
2023/08/06 19:57:07;;;;;;;0.08;0.08;;;;;;;20.37;100.00;101060.19;10515775;28;20478;-77
2023/08/06 20:02:09;;;;;;;0.00;0.00;;;;;;;20.12;100.00;101056.13;10503945;28;20036;-77
2023/08/06 20:07:11;;;;;;;0.22;0.03;;;;;;;20.12;100.00;101055.28;10518740;28;20109;-77
2023/08/06 20:12:12;;;;;;;0.00;0.00;;;;;;;19.79;100.00;101058.19;10496990;28;20466;-77
2023/08/06 20:17:14;;;;;;;0.08;0.08;;;;;;;20.01;100.00;101057.13;10517590;28;20056;-77
2023/08/06 20:22:16;;;;;;;0.30;0.20;;;;;;;20.06;100.00;101060.56;10517236;28;20046;-77
2023/08/06 20:27:18;;;;;;;4.90;1.45;;;;;;;20.08;100.00;101053.56;10517042;28;20047;-77
2023/08/06 20:32:19;;;;;;;0.00;0.00;;;;;;;19.90;100.00;101045.06;10525925;28;20040;-77
2023/08/06 20:37:21;;;;;;;0.00;0.00;;;;;;;20.05;100.00;101049.22;10518220;28;20040;-77
2023/08/06 20:42:22;;;;;;;0.00;0.00;;;;;;;20.12;100.00;101050.03;10498403;28;20047;-77
2023/08/06 20:47:24;;;;;;;0.05;0.05;;;;;;;20.55;100.00;101044.28;10516692;28;20048;-77
2023/08/06 20:52:26;;;;;;;0.00;0.00;;;;;;;20.19;100.00;101043.84;10497706;28;20056;-77
2023/08/06 20:57:28;;;;;;;0.00;0.00;;;;;;;20.46;100.00;101044.38;10509814;28;20040;-77
2023/08/06 21:02:30;;;;;;;0.00;0.00;;;;;;;20.79;100.00;101037.00;10501293;28;20502;-77
2023/08/06 21:07:31;;;;;;;0.00;0.00;;;;;;;20.91;100.00;101026.31;10511372;28;20080;-77
2023/08/06 21:12:33;;;;;;;0.00;0.00;;;;;;;20.28;100.00;101033.28;10518273;28;20047;-77
2023/08/06 21:17:35;;;;;;;0.38;0.32;;;;;;;20.16;100.00;101035.19;10511413;28;20060;-77
2023/08/06 21:22:36;;;;;;;0.05;0.05;;;;;;;20.61;100.00;101028.47;10518814;28;20130;-77
2023/08/06 21:27:38;;;;;;;0.00;0.00;;;;;;;20.65;100.00;101036.28;10504797;28;20052;-77
2023/08/06 21:32:40;;;;;;;0.00;0.00;;;;;;;20.45;100.00;101029.56;10519583;28;20056;-77
2023/08/06 21:37:42;;;;;;;1.02;0.88;;;;;;;20.76;100.00;101035.28;10526173;28;20475;-77
2023/08/06 21:42:45;;;;;;;0.05;0.05;;;;;;;20.97;100.00;101029.72;10526320;28;20135;-77
2023/08/06 21:47:46;;;;;;;0.10;0.05;;;;;;;20.74;100.00;101033.56;10525694;28;20405;-77
2023/08/06 21:52:49;;;;;;;0.00;0.00;;;;;;;20.65;100.00;101028.44;10539767;28;20068;-76
2023/08/06 21:57:51;;;;;;;0.10;0.10;;;;;;;20.43;100.00;101028.75;10519522;28;20757;-76
2023/08/06 22:02:52;;;;;;;0.00;0.00;;;;;;;20.19;100.00;101025.53;10525971;28;20051;-77
2023/08/06 22:07:54;;;;;;;0.25;0.25;;;;;;;20.43;100.00;101028.75;10508546;28;20645;-77
2023/08/06 22:12:56;;;;;;;0.22;0.17;;;;;;;20.08;100.00;101027.41;10525537;28;20134;-77
2023/08/06 22:17:57;;;;;;;0.00;0.00;;;;;;;20.24;100.00;101034.19;10509262;28;20168;-77
2023/08/06 22:22:59;;;;;;;0.00;0.00;;;;;;;20.07;100.00;101036.13;10511032;28;20458;-77
2023/08/06 22:28:01;;;;;;;0.30;0.17;;;;;;;19.70;100.00;101036.50;10508733;28;20048;-78
2023/08/06 22:33:03;;;;;;;0.00;0.00;;;;;;;20.15;100.00;101036.91;10525435;28;20050;-78
2023/08/06 22:38:05;;;;;;;0.00;0.00;;;;;;;20.79;100.00;101037.00;10510532;28;20490;-79
2023/08/06 22:43:06;;;;;;;0.10;0.10;;;;;;;20.29;100.00;101041.97;10525207;28;20569;-78
2023/08/06 22:48:08;;;;;;;0.10;0.00;;;;;;;19.98;100.00;101047.56;10507191;28;20048;-77
2023/08/06 22:53:10;;;;;;;6.60;0.68;;;;;;;20.35;100.00;101052.38;10499030;28;20134;-78